sensor_id;sensor_type;location;lat;lon;timestamp;P1;durP1;ratioP1;P2;durP2;ratioP2
61960;SDS011;47923;42.506;24.192;2023-12-20T00:00:12;39.70;;;26.08;;
61960;SDS011;47923;42.506;24.192;2023-12-20T00:02:38;47.22;;;30.75;;
61960;SDS011;47923;42.506;24.192;2023-12-20T00:05:03;103.10;;;64.75;;
61960;SDS011;47923;42.506;24.192;2023-12-20T00:07:29;75.82;;;50.42;;
61960;SDS011;47923;42.506;24.192;2023-12-20T00:09:54;51.95;;;34.53;;
61960;SDS011;47923;42.506;24.192;2023-12-20T00:12:20;50.35;;;35.40;;
61960;SDS011;47923;42.506;24.192;2023-12-20T00:14:45;36.78;;;26.23;;
61960;SDS011;47923;42.506;24.192;2023-12-20T00:17:11;26.40;;;17.30;;
61960;SDS011;47923;42.506;24.192;2023-12-20T00:19:36;28.67;;;17.92;;
61960;SDS011;47923;42.506;24.192;2023-12-20T00:22:02;26.33;;;17.05;;
61960;SDS011;47923;42.506;24.192;2023-12-20T00:24:27;24.33;;;16.15;;
61960;SDS011;47923;42.506;24.192;2023-12-20T00:26:52;31.35;;;20.70;;
61960;SDS011;47923;42.506;24.192;2023-12-20T00:29:18;30.35;;;20.08;;
61960;SDS011;47923;42.506;24.192;2023-12-20T00:31:43;30.40;;;19.73;;
61960;SDS011;47923;42.506;24.192;2023-12-20T00:34:09;26.35;;;18.30;;
61960;SDS011;47923;42.506;24.192;2023-12-20T00:36:34;32.42;;;20.05;;
61960;SDS011;47923;42.506;24.192;2023-12-20T00:38:59;130.75;;;84.65;;
61960;SDS011;47923;42.506;24.192;2023-12-20T00:41:25;59.83;;;38.33;;
61960;SDS011;47923;42.506;24.192;2023-12-20T00:43:50;64.50;;;43.25;;
61960;SDS011;47923;42.506;24.192;2023-12-20T00:46:16;40.45;;;32.95;;
61960;SDS011;47923;42.506;24.192;2023-12-20T00:48:41;42.05;;;28.52;;
61960;SDS011;47923;42.506;24.192;2023-12-20T00:51:07;56.83;;;36.95;;
61960;SDS011;47923;42.506;24.192;2023-12-20T00:53:33;72.43;;;46.60;;
61960;SDS011;47923;42.506;24.192;2023-12-20T00:55:58;53.65;;;35.03;;
61960;SDS011;47923;42.506;24.192;2023-12-20T00:58:24;34.55;;;24.27;;
61960;SDS011;47923;42.506;24.192;2023-12-20T01:00:49;31.48;;;23.25;;
61960;SDS011;47923;42.506;24.192;2023-12-20T01:03:15;24.77;;;16.15;;
61960;SDS011;47923;42.506;24.192;2023-12-20T01:05:40;21.58;;;10.90;;
61960;SDS011;47923;42.506;24.192;2023-12-20T01:08:06;16.20;;;10.70;;
61960;SDS011;47923;42.506;24.192;2023-12-20T01:10:31;15.05;;;9.77;;
61960;SDS011;47923;42.506;24.192;2023-12-20T01:12:57;23.67;;;16.83;;
61960;SDS011;47923;42.506;24.192;2023-12-20T01:15:22;29.38;;;19.42;;
61960;SDS011;47923;42.506;24.192;2023-12-20T01:17:48;40.75;;;28.88;;
61960;SDS011;47923;42.506;24.192;2023-12-20T01:20:14;34.42;;;23.02;;
61960;SDS011;47923;42.506;24.192;2023-12-20T01:22:40;30.63;;;19.58;;
61960;SDS011;47923;42.506;24.192;2023-12-20T01:25:05;27.20;;;16.42;;
61960;SDS011;47923;42.506;24.192;2023-12-20T01:27:31;22.85;;;14.30;;
61960;SDS011;47923;42.506;24.192;2023-12-20T01:29:57;15.80;;;11.00;;
61960;SDS011;47923;42.506;24.192;2023-12-20T01:32:22;21.08;;;14.23;;
61960;SDS011;47923;42.506;24.192;2023-12-20T01:34:48;19.05;;;13.00;;
61960;SDS011;47923;42.506;24.192;2023-12-20T01:37:13;14.35;;;9.25;;
61960;SDS011;47923;42.506;24.192;2023-12-20T01:39:39;11.32;;;6.45;;
61960;SDS011;47923;42.506;24.192;2023-12-20T01:42:04;12.70;;;7.07;;
61960;SDS011;47923;42.506;24.192;2023-12-20T01:44:30;10.98;;;6.97;;
61960;SDS011;47923;42.506;24.192;2023-12-20T01:46:55;12.35;;;7.55;;
61960;SDS011;47923;42.506;24.192;2023-12-20T01:49:22;12.93;;;7.72;;
61960;SDS011;47923;42.506;24.192;2023-12-20T01:51:47;15.80;;;10.52;;
61960;SDS011;47923;42.506;24.192;2023-12-20T01:54:14;20.90;;;14.23;;
61960;SDS011;47923;42.506;24.192;2023-12-20T01:56:39;26.35;;;17.80;;
61960;SDS011;47923;42.506;24.192;2023-12-20T01:59:05;57.60;;;36.72;;
61960;SDS011;47923;42.506;24.192;2023-12-20T02:01:32;36.40;;;23.70;;
61960;SDS011;47923;42.506;24.192;2023-12-20T02:03:58;34.78;;;22.77;;
61960;SDS011;47923;42.506;24.192;2023-12-20T02:06:25;37.33;;;23.65;;
61960;SDS011;47923;42.506;24.192;2023-12-20T02:08:55;36.92;;;24.88;;
61960;SDS011;47923;42.506;24.192;2023-12-20T02:11:21;33.85;;;22.50;;
61960;SDS011;47923;42.506;24.192;2023-12-20T02:13:46;24.42;;;16.60;;
61960;SDS011;47923;42.506;24.192;2023-12-20T02:16:12;24.75;;;17.05;;
61960;SDS011;47923;42.506;24.192;2023-12-20T02:18:37;34.75;;;22.17;;
61960;SDS011;47923;42.506;24.192;2023-12-20T02:21:04;27.65;;;18.58;;
61960;SDS011;47923;42.506;24.192;2023-12-20T02:23:30;22.08;;;14.80;;
61960;SDS011;47923;42.506;24.192;2023-12-20T02:25:56;22.55;;;14.63;;
61960;SDS011;47923;42.506;24.192;2023-12-20T02:28:21;19.27;;;12.80;;
61960;SDS011;47923;42.506;24.192;2023-12-20T02:30:47;12.77;;;7.88;;
61960;SDS011;47923;42.506;24.192;2023-12-20T02:33:14;24.20;;;16.92;;
61960;SDS011;47923;42.506;24.192;2023-12-20T02:35:40;35.42;;;21.90;;
61960;SDS011;47923;42.506;24.192;2023-12-20T02:38:06;29.38;;;19.80;;
61960;SDS011;47923;42.506;24.192;2023-12-20T02:40:31;27.17;;;17.60;;
61960;SDS011;47923;42.506;24.192;2023-12-20T02:42:57;23.35;;;14.32;;
61960;SDS011;47923;42.506;24.192;2023-12-20T02:45:22;18.52;;;11.60;;
61960;SDS011;47923;42.506;24.192;2023-12-20T02:47:48;21.05;;;13.25;;
61960;SDS011;47923;42.506;24.192;2023-12-20T02:50:13;20.10;;;13.18;;
61960;SDS011;47923;42.506;24.192;2023-12-20T02:52:39;19.73;;;13.52;;
61960;SDS011;47923;42.506;24.192;2023-12-20T02:55:04;31.23;;;19.30;;
61960;SDS011;47923;42.506;24.192;2023-12-20T02:57:30;34.38;;;21.23;;
61960;SDS011;47923;42.506;24.192;2023-12-20T02:59:55;49.47;;;31.48;;
61960;SDS011;47923;42.506;24.192;2023-12-20T03:02:21;36.30;;;24.02;;
61960;SDS011;47923;42.506;24.192;2023-12-20T03:04:46;41.33;;;25.88;;
61960;SDS011;47923;42.506;24.192;2023-12-20T03:07:11;38.75;;;25.15;;
61960;SDS011;47923;42.506;24.192;2023-12-20T03:09:37;43.83;;;27.75;;
61960;SDS011;47923;42.506;24.192;2023-12-20T03:12:02;42.30;;;27.30;;
61960;SDS011;47923;42.506;24.192;2023-12-20T03:14:28;43.15;;;27.50;;
61960;SDS011;47923;42.506;24.192;2023-12-20T03:16:54;54.13;;;33.70;;
61960;SDS011;47923;42.506;24.192;2023-12-20T03:19:19;58.75;;;37.97;;
61960;SDS011;47923;42.506;24.192;2023-12-20T03:21:45;46.83;;;28.83;;
61960;SDS011;47923;42.506;24.192;2023-12-20T03:24:10;74.30;;;46.25;;
61960;SDS011;47923;42.506;24.192;2023-12-20T03:26:36;144.27;;;85.65;;
61960;SDS011;47923;42.506;24.192;2023-12-20T03:29:01;111.38;;;67.53;;
61960;SDS011;47923;42.506;24.192;2023-12-20T03:31:27;90.57;;;54.58;;
61960;SDS011;47923;42.506;24.192;2023-12-20T03:33:52;56.35;;;35.30;;
61960;SDS011;47923;42.506;24.192;2023-12-20T03:36:18;60.10;;;38.88;;
61960;SDS011;47923;42.506;24.192;2023-12-20T03:38:44;35.08;;;24.42;;
61960;SDS011;47923;42.506;24.192;2023-12-20T03:41:10;58.35;;;35.10;;
61960;SDS011;47923;42.506;24.192;2023-12-20T03:43:36;58.55;;;34.35;;
61960;SDS011;47923;42.506;24.192;2023-12-20T03:46:03;66.93;;;39.25;;
61960;SDS011;47923;42.506;24.192;2023-12-20T03:48:29;59.05;;;39.78;;
61960;SDS011;47923;42.506;24.192;2023-12-20T03:50:56;56.55;;;37.60;;
61960;SDS011;47923;42.506;24.192;2023-12-20T03:53:22;52.45;;;33.83;;
61960;SDS011;47923;42.506;24.192;2023-12-20T03:55:47;52.47;;;34.42;;
61960;SDS011;47923;42.506;24.192;2023-12-20T03:58:13;50.35;;;34.55;;
61960;SDS011;47923;42.506;24.192;2023-12-20T04:00:38;50.55;;;32.78;;
61960;SDS011;47923;42.506;24.192;2023-12-20T04:03:04;36.28;;;23.27;;
61960;SDS011;47923;42.506;24.192;2023-12-20T04:05:29;31.88;;;21.33;;
61960;SDS011;47923;42.506;24.192;2023-12-20T04:07:54;55.22;;;32.97;;
61960;SDS011;47923;42.506;24.192;2023-12-20T04:10:20;23.77;;;16.88;;
61960;SDS011;47923;42.506;24.192;2023-12-20T04:12:45;36.92;;;21.67;;
61960;SDS011;47923;42.506;24.192;2023-12-20T04:15:11;56.45;;;33.58;;
61960;SDS011;47923;42.506;24.192;2023-12-20T04:17:37;39.38;;;26.20;;
61960;SDS011;47923;42.506;24.192;2023-12-20T04:20:02;28.42;;;19.98;;
61960;SDS011;47923;42.506;24.192;2023-12-20T04:22:28;24.63;;;15.27;;
61960;SDS011;47923;42.506;24.192;2023-12-20T04:24:54;20.92;;;14.95;;
61960;SDS011;47923;42.506;24.192;2023-12-20T04:27:19;24.42;;;16.60;;
61960;SDS011;47923;42.506;24.192;2023-12-20T04:29:44;22.83;;;15.10;;
61960;SDS011;47923;42.506;24.192;2023-12-20T04:32:10;28.17;;;20.38;;
61960;SDS011;47923;42.506;24.192;2023-12-20T04:34:35;59.70;;;45.70;;
61960;SDS011;47923;42.506;24.192;2023-12-20T04:37:01;30.08;;;21.13;;
61960;SDS011;47923;42.506;24.192;2023-12-20T04:39:27;34.30;;;24.88;;
61960;SDS011;47923;42.506;24.192;2023-12-20T04:41:52;21.08;;;13.73;;
61960;SDS011;47923;42.506;24.192;2023-12-20T04:44:17;19.92;;;13.02;;
61960;SDS011;47923;42.506;24.192;2023-12-20T04:46:43;17.38;;;10.88;;
61960;SDS011;47923;42.506;24.192;2023-12-20T04:49:09;19.17;;;12.07;;
61960;SDS011;47923;42.506;24.192;2023-12-20T04:51:34;24.75;;;18.13;;
61960;SDS011;47923;42.506;24.192;2023-12-20T04:54:00;24.65;;;16.77;;
61960;SDS011;47923;42.506;24.192;2023-12-20T04:56:26;26.42;;;18.88;;
61960;SDS011;47923;42.506;24.192;2023-12-20T04:58:51;34.75;;;23.02;;
61960;SDS011;47923;42.506;24.192;2023-12-20T05:01:17;35.50;;;25.10;;
61960;SDS011;47923;42.506;24.192;2023-12-20T05:03:42;44.80;;;31.75;;
61960;SDS011;47923;42.506;24.192;2023-12-20T05:06:09;47.00;;;31.08;;
61960;SDS011;47923;42.506;24.192;2023-12-20T05:08:35;61.63;;;42.70;;
61960;SDS011;47923;42.506;24.192;2023-12-20T05:11:00;65.05;;;42.25;;
61960;SDS011;47923;42.506;24.192;2023-12-20T05:13:26;88.88;;;57.38;;
61960;SDS011;47923;42.506;24.192;2023-12-20T05:15:51;71.72;;;52.33;;
61960;SDS011;47923;42.506;24.192;2023-12-20T05:18:16;33.80;;;24.77;;
61960;SDS011;47923;42.506;24.192;2023-12-20T05:20:42;34.50;;;25.45;;
61960;SDS011;47923;42.506;24.192;2023-12-20T05:23:07;32.00;;;23.75;;
61960;SDS011;47923;42.506;24.192;2023-12-20T05:25:33;28.92;;;19.80;;
61960;SDS011;47923;42.506;24.192;2023-12-20T05:27:58;39.10;;;25.83;;
61960;SDS011;47923;42.506;24.192;2023-12-20T05:30:23;48.95;;;34.88;;
61960;SDS011;47923;42.506;24.192;2023-12-20T05:32:49;33.35;;;22.50;;
61960;SDS011;47923;42.506;24.192;2023-12-20T05:35:14;33.90;;;24.65;;
61960;SDS011;47923;42.506;24.192;2023-12-20T05:37:40;28.88;;;20.52;;
61960;SDS011;47923;42.506;24.192;2023-12-20T05:40:06;76.70;;;46.70;;
61960;SDS011;47923;42.506;24.192;2023-12-20T05:42:35;57.60;;;38.53;;
61960;SDS011;47923;42.506;24.192;2023-12-20T05:45:00;68.60;;;42.45;;
61960;SDS011;47923;42.506;24.192;2023-12-20T05:47:26;57.30;;;35.83;;
61960;SDS011;47923;42.506;24.192;2023-12-20T05:49:51;48.30;;;33.83;;
61960;SDS011;47923;42.506;24.192;2023-12-20T05:52:17;57.55;;;39.53;;
61960;SDS011;47923;42.506;24.192;2023-12-20T05:54:42;66.78;;;44.17;;
61960;SDS011;47923;42.506;24.192;2023-12-20T05:57:07;100.20;;;65.18;;
61960;SDS011;47923;42.506;24.192;2023-12-20T05:59:33;72.78;;;49.63;;
61960;SDS011;47923;42.506;24.192;2023-12-20T06:01:58;60.65;;;42.25;;
61960;SDS011;47923;42.506;24.192;2023-12-20T06:04:24;55.67;;;37.63;;
61960;SDS011;47923;42.506;24.192;2023-12-20T06:06:49;52.88;;;36.47;;
61960;SDS011;47923;42.506;24.192;2023-12-20T06:09:15;65.88;;;45.15;;
61960;SDS011;47923;42.506;24.192;2023-12-20T06:11:40;74.97;;;52.70;;
61960;SDS011;47923;42.506;24.192;2023-12-20T06:14:06;68.75;;;49.67;;
61960;SDS011;47923;42.506;24.192;2023-12-20T06:16:31;63.45;;;42.33;;
61960;SDS011;47923;42.506;24.192;2023-12-20T06:18:57;80.40;;;55.10;;
61960;SDS011;47923;42.506;24.192;2023-12-20T06:21:22;59.25;;;43.05;;
61960;SDS011;47923;42.506;24.192;2023-12-20T06:23:50;38.00;;;26.52;;
61960;SDS011;47923;42.506;24.192;2023-12-20T06:26:16;78.25;;;53.13;;
61960;SDS011;47923;42.506;24.192;2023-12-20T06:28:41;65.15;;;45.70;;
61960;SDS011;47923;42.506;24.192;2023-12-20T06:31:06;65.68;;;44.97;;
61960;SDS011;47923;42.506;24.192;2023-12-20T06:33:32;76.15;;;51.00;;
61960;SDS011;47923;42.506;24.192;2023-12-20T06:35:58;46.45;;;32.95;;
61960;SDS011;47923;42.506;24.192;2023-12-20T06:38:23;57.13;;;41.10;;
61960;SDS011;47923;42.506;24.192;2023-12-20T06:40:48;53.10;;;36.03;;
61960;SDS011;47923;42.506;24.192;2023-12-20T06:43:14;306.08;;;182.07;;
61960;SDS011;47923;42.506;24.192;2023-12-20T06:45:39;385.27;;;216.02;;
61960;SDS011;47923;42.506;24.192;2023-12-20T06:48:05;143.23;;;85.30;;
61960;SDS011;47923;42.506;24.192;2023-12-20T06:50:31;259.58;;;128.00;;
61960;SDS011;47923;42.506;24.192;2023-12-20T06:52:57;283.75;;;136.77;;
61960;SDS011;47923;42.506;24.192;2023-12-20T06:55:22;198.90;;;98.07;;
61960;SDS011;47923;42.506;24.192;2023-12-20T06:57:48;171.95;;;92.32;;
61960;SDS011;47923;42.506;24.192;2023-12-20T07:00:13;158.50;;;79.35;;
61960;SDS011;47923;42.506;24.192;2023-12-20T07:02:39;126.07;;;66.10;;
61960;SDS011;47923;42.506;24.192;2023-12-20T07:05:05;116.38;;;62.30;;
61960;SDS011;47923;42.506;24.192;2023-12-20T07:07:31;121.25;;;61.30;;
61960;SDS011;47923;42.506;24.192;2023-12-20T07:09:56;230.35;;;138.88;;
61960;SDS011;47923;42.506;24.192;2023-12-20T07:12:22;217.77;;;126.40;;
61960;SDS011;47923;42.506;24.192;2023-12-20T07:14:47;195.93;;;118.65;;
61960;SDS011;47923;42.506;24.192;2023-12-20T07:17:13;149.45;;;95.70;;
61960;SDS011;47923;42.506;24.192;2023-12-20T07:19:40;97.95;;;62.72;;
61960;SDS011;47923;42.506;24.192;2023-12-20T07:22:06;100.18;;;62.67;;
61960;SDS011;47923;42.506;24.192;2023-12-20T07:24:32;120.28;;;74.38;;
61960;SDS011;47923;42.506;24.192;2023-12-20T07:26:59;113.65;;;77.07;;
61960;SDS011;47923;42.506;24.192;2023-12-20T07:29:25;157.15;;;109.82;;
61960;SDS011;47923;42.506;24.192;2023-12-20T07:31:51;165.60;;;107.28;;
61960;SDS011;47923;42.506;24.192;2023-12-20T07:34:18;167.40;;;114.22;;
61960;SDS011;47923;42.506;24.192;2023-12-20T07:36:44;182.05;;;128.88;;
61960;SDS011;47923;42.506;24.192;2023-12-20T07:39:10;222.35;;;158.00;;
61960;SDS011;47923;42.506;24.192;2023-12-20T07:41:35;183.90;;;137.95;;
61960;SDS011;47923;42.506;24.192;2023-12-20T07:44:00;184.18;;;137.52;;
61960;SDS011;47923;42.506;24.192;2023-12-20T07:46:26;165.77;;;132.40;;
61960;SDS011;47923;42.506;24.192;2023-12-20T07:48:51;185.30;;;138.35;;
61960;SDS011;47923;42.506;24.192;2023-12-20T07:51:17;181.32;;;145.18;;
61960;SDS011;47923;42.506;24.192;2023-12-20T07:53:42;167.27;;;135.32;;
61960;SDS011;47923;42.506;24.192;2023-12-20T07:56:14;187.65;;;155.45;;
61960;SDS011;47923;42.506;24.192;2023-12-20T07:58:43;171.93;;;144.40;;
61960;SDS011;47923;42.506;24.192;2023-12-20T08:01:10;177.00;;;145.52;;
61960;SDS011;47923;42.506;24.192;2023-12-20T08:03:36;171.23;;;139.98;;
61960;SDS011;47923;42.506;24.192;2023-12-20T08:06:02;149.07;;;128.27;;
61960;SDS011;47923;42.506;24.192;2023-12-20T08:08:27;132.90;;;109.95;;
61960;SDS011;47923;42.506;24.192;2023-12-20T08:10:53;137.02;;;112.20;;
61960;SDS011;47923;42.506;24.192;2023-12-20T08:13:18;135.57;;;110.57;;
61960;SDS011;47923;42.506;24.192;2023-12-20T08:15:44;144.40;;;113.82;;
61960;SDS011;47923;42.506;24.192;2023-12-20T08:18:09;165.65;;;127.90;;
61960;SDS011;47923;42.506;24.192;2023-12-20T08:20:34;160.00;;;127.60;;
61960;SDS011;47923;42.506;24.192;2023-12-20T08:23:00;157.85;;;125.13;;
61960;SDS011;47923;42.506;24.192;2023-12-20T08:25:25;175.45;;;131.70;;
61960;SDS011;47923;42.506;24.192;2023-12-20T08:27:52;180.13;;;134.75;;
61960;SDS011;47923;42.506;24.192;2023-12-20T08:30:18;168.93;;;131.88;;
61960;SDS011;47923;42.506;24.192;2023-12-20T08:32:46;171.40;;;135.35;;
61960;SDS011;47923;42.506;24.192;2023-12-20T08:35:13;171.40;;;135.75;;
61960;SDS011;47923;42.506;24.192;2023-12-20T08:37:38;177.52;;;140.52;;
61960;SDS011;47923;42.506;24.192;2023-12-20T08:40:03;167.68;;;135.32;;
61960;SDS011;47923;42.506;24.192;2023-12-20T08:42:30;176.55;;;145.50;;
61960;SDS011;47923;42.506;24.192;2023-12-20T08:44:57;177.00;;;143.60;;
61960;SDS011;47923;42.506;24.192;2023-12-20T08:47:23;151.05;;;127.78;;
61960;SDS011;47923;42.506;24.192;2023-12-20T08:49:49;156.10;;;131.98;;
61960;SDS011;47923;42.506;24.192;2023-12-20T08:52:14;145.63;;;122.07;;
61960;SDS011;47923;42.506;24.192;2023-12-20T08:54:40;138.90;;;119.40;;
61960;SDS011;47923;42.506;24.192;2023-12-20T08:57:05;149.77;;;127.15;;
61960;SDS011;47923;42.506;24.192;2023-12-20T08:59:32;150.55;;;128.70;;
61960;SDS011;47923;42.506;24.192;2023-12-20T09:01:57;145.05;;;128.07;;
61960;SDS011;47923;42.506;24.192;2023-12-20T09:04:23;138.70;;;123.60;;
61960;SDS011;47923;42.506;24.192;2023-12-20T09:06:48;134.07;;;119.35;;
61960;SDS011;47923;42.506;24.192;2023-12-20T09:09:14;113.57;;;98.93;;
61960;SDS011;47923;42.506;24.192;2023-12-20T09:11:39;105.45;;;91.82;;
61960;SDS011;47923;42.506;24.192;2023-12-20T09:14:05;106.00;;;92.13;;
61960;SDS011;47923;42.506;24.192;2023-12-20T09:16:30;141.25;;;113.53;;
61960;SDS011;47923;42.506;24.192;2023-12-20T09:18:56;141.75;;;110.03;;
61960;SDS011;47923;42.506;24.192;2023-12-20T09:21:22;109.88;;;84.20;;
61960;SDS011;47923;42.506;24.192;2023-12-20T09:23:48;99.05;;;82.43;;
61960;SDS011;47923;42.506;24.192;2023-12-20T09:26:13;86.32;;;70.25;;
61960;SDS011;47923;42.506;24.192;2023-12-20T09:28:39;99.30;;;79.53;;
61960;SDS011;47923;42.506;24.192;2023-12-20T09:31:05;91.70;;;73.47;;
61960;SDS011;47923;42.506;24.192;2023-12-20T09:33:32;106.75;;;89.10;;
61960;SDS011;47923;42.506;24.192;2023-12-20T09:35:57;152.52;;;119.50;;
61960;SDS011;47923;42.506;24.192;2023-12-20T09:38:23;148.63;;;121.22;;
61960;SDS011;47923;42.506;24.192;2023-12-20T09:40:48;114.05;;;94.35;;
61960;SDS011;47923;42.506;24.192;2023-12-20T09:43:15;157.07;;;128.73;;
61960;SDS011;47923;42.506;24.192;2023-12-20T09:45:41;123.50;;;104.80;;
61960;SDS011;47923;42.506;24.192;2023-12-20T09:48:10;121.38;;;97.65;;
61960;SDS011;47923;42.506;24.192;2023-12-20T09:50:36;95.45;;;79.55;;
61960;SDS011;47923;42.506;24.192;2023-12-20T09:53:02;90.38;;;76.20;;
61960;SDS011;47923;42.506;24.192;2023-12-20T09:55:29;80.47;;;65.50;;
61960;SDS011;47923;42.506;24.192;2023-12-20T09:57:57;61.55;;;48.38;;
61960;SDS011;47923;42.506;24.192;2023-12-20T10:00:22;119.13;;;87.97;;
61960;SDS011;47923;42.506;24.192;2023-12-20T10:05:28;81.13;;;66.80;;
61960;SDS011;47923;42.506;24.192;2023-12-20T10:07:57;87.10;;;71.35;;
61960;SDS011;47923;42.506;24.192;2023-12-20T10:10:23;87.47;;;73.65;;
61960;SDS011;47923;42.506;24.192;2023-12-20T10:13:01;86.22;;;74.43;;
61960;SDS011;47923;42.506;24.192;2023-12-20T10:15:29;86.72;;;73.38;;
61960;SDS011;47923;42.506;24.192;2023-12-20T10:17:55;86.82;;;73.88;;
61960;SDS011;47923;42.506;24.192;2023-12-20T10:20:21;69.65;;;58.20;;
61960;SDS011;47923;42.506;24.192;2023-12-20T10:22:47;68.40;;;57.08;;
61960;SDS011;47923;42.506;24.192;2023-12-20T10:25:13;52.83;;;45.35;;
61960;SDS011;47923;42.506;24.192;2023-12-20T10:27:39;45.58;;;38.05;;
61960;SDS011;47923;42.506;24.192;2023-12-20T10:30:05;34.45;;;28.23;;
61960;SDS011;47923;42.506;24.192;2023-12-20T10:32:30;34.97;;;31.17;;
61960;SDS011;47923;42.506;24.192;2023-12-20T10:34:56;31.27;;;27.88;;
61960;SDS011;47923;42.506;24.192;2023-12-20T10:37:22;31.67;;;20.95;;
61960;SDS011;47923;42.506;24.192;2023-12-20T10:39:51;23.52;;;18.73;;
61960;SDS011;47923;42.506;24.192;2023-12-20T10:42:30;35.47;;;19.63;;
61960;SDS011;47923;42.506;24.192;2023-12-20T10:44:56;23.35;;;17.52;;
61960;SDS011;47923;42.506;24.192;2023-12-20T10:47:21;21.40;;;15.23;;
61960;SDS011;47923;42.506;24.192;2023-12-20T10:49:49;17.40;;;12.70;;
61960;SDS011;47923;42.506;24.192;2023-12-20T10:52:17;17.90;;;10.32;;
61960;SDS011;47923;42.506;24.192;2023-12-20T10:54:42;9.82;;;6.93;;
61960;SDS011;47923;42.506;24.192;2023-12-20T10:57:08;6.35;;;3.13;;
61960;SDS011;47923;42.506;24.192;2023-12-20T10:59:34;11.73;;;7.50;;
61960;SDS011;47923;42.506;24.192;2023-12-20T11:02:02;13.85;;;6.93;;
61960;SDS011;47923;42.506;24.192;2023-12-20T11:04:53;7.10;;;2.42;;
61960;SDS011;47923;42.506;24.192;2023-12-20T11:07:38;6.68;;;3.50;;
61960;SDS011;47923;42.506;24.192;2023-12-20T11:10:19;7.15;;;3.25;;
61960;SDS011;47923;42.506;24.192;2023-12-20T11:15:13;11.23;;;3.65;;
61960;SDS011;47923;42.506;24.192;2023-12-20T11:17:40;6.60;;;3.13;;
61960;SDS011;47923;42.506;24.192;2023-12-20T11:20:06;5.68;;;2.58;;
61960;SDS011;47923;42.506;24.192;2023-12-20T11:22:35;6.38;;;3.70;;
61960;SDS011;47923;42.506;24.192;2023-12-20T11:25:05;5.35;;;2.40;;
61960;SDS011;47923;42.506;24.192;2023-12-20T11:27:35;12.90;;;3.88;;
61960;SDS011;47923;42.506;24.192;2023-12-20T11:30:03;13.90;;;4.60;;
61960;SDS011;47923;42.506;24.192;2023-12-20T11:32:35;16.58;;;10.30;;
61960;SDS011;47923;42.506;24.192;2023-12-20T11:35:16;13.07;;;11.10;;
61960;SDS011;47923;42.506;24.192;2023-12-20T11:37:44;5.82;;;3.33;;
61960;SDS011;47923;42.506;24.192;2023-12-20T11:40:13;8.93;;;4.47;;
61960;SDS011;47923;42.506;24.192;2023-12-20T11:42:49;13.02;;;4.55;;
61960;SDS011;47923;42.506;24.192;2023-12-20T11:45:17;10.80;;;3.15;;
61960;SDS011;47923;42.506;24.192;2023-12-20T11:47:46;8.27;;;3.78;;
61960;SDS011;47923;42.506;24.192;2023-12-20T11:50:16;6.40;;;2.40;;
61960;SDS011;47923;42.506;24.192;2023-12-20T11:52:42;7.65;;;3.63;;
61960;SDS011;47923;42.506;24.192;2023-12-20T11:55:08;9.93;;;5.30;;
61960;SDS011;47923;42.506;24.192;2023-12-20T11:57:33;8.10;;;3.85;;
61960;SDS011;47923;42.506;24.192;2023-12-20T11:59:59;7.10;;;3.50;;
61960;SDS011;47923;42.506;24.192;2023-12-20T12:02:24;9.13;;;4.70;;
61960;SDS011;47923;42.506;24.192;2023-12-20T12:04:50;8.85;;;4.38;;
61960;SDS011;47923;42.506;24.192;2023-12-20T12:07:16;9.45;;;5.18;;
61960;SDS011;47923;42.506;24.192;2023-12-20T12:09:42;8.05;;;3.95;;
61960;SDS011;47923;42.506;24.192;2023-12-20T12:12:09;6.07;;;3.35;;
61960;SDS011;47923;42.506;24.192;2023-12-20T12:14:36;10.52;;;4.85;;
61960;SDS011;47923;42.506;24.192;2023-12-20T12:17:02;10.63;;;4.57;;
61960;SDS011;47923;42.506;24.192;2023-12-20T12:19:28;12.35;;;5.78;;
61960;SDS011;47923;42.506;24.192;2023-12-20T12:22:04;7.90;;;4.57;;
61960;SDS011;47923;42.506;24.192;2023-12-20T12:24:41;13.00;;;7.05;;
61960;SDS011;47923;42.506;24.192;2023-12-20T12:27:07;12.93;;;6.28;;
61960;SDS011;47923;42.506;24.192;2023-12-20T12:29:33;11.35;;;6.53;;
61960;SDS011;47923;42.506;24.192;2023-12-20T12:32:05;15.43;;;7.57;;
61960;SDS011;47923;42.506;24.192;2023-12-20T12:34:32;14.05;;;8.65;;
61960;SDS011;47923;42.506;24.192;2023-12-20T12:36:59;14.10;;;8.00;;
61960;SDS011;47923;42.506;24.192;2023-12-20T12:39:24;13.68;;;7.28;;
61960;SDS011;47923;42.506;24.192;2023-12-20T12:41:50;12.55;;;6.63;;
61960;SDS011;47923;42.506;24.192;2023-12-20T12:44:16;18.23;;;9.48;;
61960;SDS011;47923;42.506;24.192;2023-12-20T12:46:42;18.52;;;9.75;;
61960;SDS011;47923;42.506;24.192;2023-12-20T12:49:08;14.15;;;8.60;;
61960;SDS011;47923;42.506;24.192;2023-12-20T12:51:34;19.05;;;12.38;;
61960;SDS011;47923;42.506;24.192;2023-12-20T12:53:59;19.45;;;12.98;;
61960;SDS011;47923;42.506;24.192;2023-12-20T12:56:25;23.52;;;12.25;;
61960;SDS011;47923;42.506;24.192;2023-12-20T12:58:50;17.55;;;11.57;;
61960;SDS011;47923;42.506;24.192;2023-12-20T13:01:16;16.55;;;9.68;;
61960;SDS011;47923;42.506;24.192;2023-12-20T13:03:41;15.18;;;9.40;;
61960;SDS011;47923;42.506;24.192;2023-12-20T13:06:07;16.10;;;8.85;;
61960;SDS011;47923;42.506;24.192;2023-12-20T13:08:33;16.58;;;10.10;;
61960;SDS011;47923;42.506;24.192;2023-12-20T13:10:59;27.25;;;14.85;;
61960;SDS011;47923;42.506;24.192;2023-12-20T13:13:26;18.67;;;12.98;;
61960;SDS011;47923;42.506;24.192;2023-12-20T13:15:52;20.58;;;12.68;;
61960;SDS011;47923;42.506;24.192;2023-12-20T13:18:20;27.30;;;16.85;;
61960;SDS011;47923;42.506;24.192;2023-12-20T13:20:48;13.63;;;8.45;;
61960;SDS011;47923;42.506;24.192;2023-12-20T13:23:14;18.75;;;11.15;;
61960;SDS011;47923;42.506;24.192;2023-12-20T13:25:40;12.45;;;6.63;;
61960;SDS011;47923;42.506;24.192;2023-12-20T13:28:06;15.15;;;9.20;;
61960;SDS011;47923;42.506;24.192;2023-12-20T13:30:33;20.95;;;13.25;;
61960;SDS011;47923;42.506;24.192;2023-12-20T13:32:59;8.90;;;5.63;;
61960;SDS011;47923;42.506;24.192;2023-12-20T13:35:24;10.18;;;5.88;;
61960;SDS011;47923;42.506;24.192;2023-12-20T13:37:50;11.73;;;7.03;;
61960;SDS011;47923;42.506;24.192;2023-12-20T13:40:15;14.10;;;8.27;;
61960;SDS011;47923;42.506;24.192;2023-12-20T13:42:41;11.70;;;6.45;;
61960;SDS011;47923;42.506;24.192;2023-12-20T13:45:07;16.45;;;10.18;;
61960;SDS011;47923;42.506;24.192;2023-12-20T13:47:33;24.00;;;15.65;;
61960;SDS011;47923;42.506;24.192;2023-12-20T13:49:58;20.83;;;14.35;;
61960;SDS011;47923;42.506;24.192;2023-12-20T13:52:24;27.23;;;17.20;;
61960;SDS011;47923;42.506;24.192;2023-12-20T13:54:49;38.30;;;29.98;;
61960;SDS011;47923;42.506;24.192;2023-12-20T13:57:15;18.65;;;13.70;;
61960;SDS011;47923;42.506;24.192;2023-12-20T13:59:40;23.75;;;17.35;;
61960;SDS011;47923;42.506;24.192;2023-12-20T14:02:06;24.67;;;16.45;;
61960;SDS011;47923;42.506;24.192;2023-12-20T14:04:32;20.88;;;14.60;;